createdAt,value
2023-02-06T00:04:33.017Z,97116.47
2023-02-06T00:09:35.410Z,97128.44
2023-02-06T00:14:37.647Z,97127.53
2023-02-06T00:19:39.920Z,97116.69
2023-02-06T00:24:42.264Z,97077.25
2023-02-06T00:29:44.588Z,97097.81
2023-02-06T00:34:46.784Z,97117.50
2023-02-06T00:39:49.011Z,97092.78
2023-02-06T00:44:51.307Z,97099.50
2023-02-06T00:49:53.711Z,97092.19
2023-02-06T00:54:56.229Z,97107.59
2023-02-06T00:59:58.623Z,97092.09
2023-02-06T01:05:02.381Z,97070.75
2023-02-06T01:10:05.190Z,97112.38
2023-02-06T01:15:11.411Z,97090.13
2023-02-06T01:20:14.836Z,97091.38
2023-02-06T01:25:17.291Z,97076.16
2023-02-06T01:30:19.437Z,97075.66
2023-02-06T01:35:21.818Z,97087.81
2023-02-06T01:40:24.233Z,97060.59
2023-02-06T01:45:26.349Z,97095.50
2023-02-06T01:50:31.268Z,97092.50
2023-02-06T01:55:36.271Z,97086.47
2023-02-06T02:00:39.157Z,97091.34
2023-02-06T02:05:43.749Z,97071.78
2023-02-06T02:10:46.605Z,97096.94
2023-02-06T02:16:13.100Z,97118.69
2023-02-06T02:21:22.430Z,97132.16
2023-02-06T02:26:27.649Z,97129.13
2023-02-06T02:32:03.153Z,97118.88
2023-02-06T02:37:20.702Z,97135.72
2023-02-06T02:43:00.330Z,97137.28
2023-02-06T02:48:16.241Z,97127.38
2023-02-06T02:53:19.377Z,97095.66
2023-02-06T02:58:30.766Z,97104.47
2023-02-06T03:03:38.142Z,97147.56
2023-02-06T03:09:00.107Z,97112.47
2023-02-06T03:14:15.802Z,97136.63
2023-02-06T03:19:31.698Z,97112.63
2023-02-06T03:24:39.481Z,97153.13
2023-02-06T03:29:43.740Z,97139.47
2023-02-06T03:34:58.301Z,97145.78
2023-02-06T03:40:01.678Z,97107.25
2023-02-06T03:45:10.117Z,97091.69
2023-02-06T03:50:14.323Z,97109.75
2023-02-06T03:55:22.973Z,97156.22
2023-02-06T04:00:26.439Z,97144.88
2023-02-06T04:05:28.827Z,97123.16
2023-02-06T04:10:31.121Z,97173.94
2023-02-06T04:15:33.746Z,97132.78
2023-02-06T04:20:41.127Z,97178.34
2023-02-06T04:25:43.311Z,97172.94
2023-02-06T04:30:45.563Z,97148.81
2023-02-06T04:35:49.049Z,97182.44
2023-02-06T04:40:51.223Z,97180.91
2023-02-06T04:45:53.380Z,97192.69
2023-02-06T04:50:55.728Z,97155.78
2023-02-06T04:56:12.550Z,97156.47
2023-02-06T05:01:17.199Z,97174.91
2023-02-06T05:06:19.710Z,97197.09
2023-02-06T05:11:22.552Z,97186.53
2023-02-06T05:16:24.878Z,97189.34
2023-02-06T05:21:27.108Z,97189.41
2023-02-06T05:26:29.396Z,97177.44
2023-02-06T05:31:31.777Z,97174.69
2023-02-06T05:36:34.185Z,97192.56
2023-02-06T05:41:36.308Z,97228.31
2023-02-06T05:46:38.630Z,97239.34
2023-02-06T05:51:41.175Z,97242.94
2023-02-06T05:56:43.634Z,97244.69
2023-02-06T06:01:45.862Z,97220.91
2023-02-06T06:06:48.085Z,97263.13
2023-02-06T06:11:51.876Z,97270.06
2023-02-06T06:16:54.230Z,97269.97
2023-02-06T06:21:58.266Z,97269.34
2023-02-06T06:27:00.560Z,97263.38
2023-02-06T06:32:03.828Z,97214.22
2023-02-06T06:37:06.034Z,97236.59
2023-02-06T06:42:08.429Z,97270.22
2023-02-06T06:47:11.131Z,97253.78
2023-02-06T06:52:23.925Z,97243.28
2023-02-06T06:57:26.666Z,97238.38
2023-02-06T07:02:28.874Z,97235.03
2023-02-06T07:07:31.104Z,97222.75
2023-02-06T07:12:33.977Z,97256.41
2023-02-06T07:17:36.549Z,97260.03
2023-02-06T07:22:39.066Z,97293.28
2023-02-06T07:27:41.158Z,97247.91
2023-02-06T07:32:43.354Z,97272.28
2023-02-06T07:37:45.821Z,97292.13
2023-02-06T07:42:48.137Z,97274.75
2023-02-06T07:47:56.772Z,97301.72
2023-02-06T07:52:59.390Z,97238.00
2023-02-06T07:58:01.756Z,97310.50
2023-02-06T08:03:05.321Z,97269.66
2023-02-06T08:08:08.105Z,97310.00
2023-02-06T08:13:10.561Z,97309.59
2023-02-06T08:18:12.750Z,97310.88
2023-02-06T08:23:14.907Z,97320.91
2023-02-06T08:28:17.308Z,97318.47
2023-02-06T08:33:19.621Z,97333.91
2023-02-06T08:54:18.293Z,97350.38
2023-02-06T08:59:20.994Z,97314.94
2023-02-06T09:04:23.183Z,97347.13
2023-02-06T09:09:25.336Z,97350.78
2023-02-06T09:14:29.747Z,97333.47
2023-02-06T09:19:32.091Z,97355.25
2023-02-06T09:24:34.249Z,97337.59
2023-02-06T09:30:27.249Z,97365.06
2023-02-06T09:35:30.656Z,97352.19
2023-02-06T09:40:34.584Z,97340.91
2023-02-06T09:45:37.045Z,97321.09
2023-02-06T09:50:44.957Z,97338.16
2023-02-06T09:55:58.844Z,97324.78
2023-02-06T10:01:11.653Z,97346.06
2023-02-06T10:06:22.022Z,97321.69
2023-02-06T10:12:01.082Z,97320.75
2023-02-06T10:17:13.589Z,97302.56
2023-02-06T10:22:42.144Z,97302.66
2023-02-06T10:27:51.079Z,97310.13
2023-02-06T10:33:25.643Z,97318.19
2023-02-06T10:39:00.873Z,97311.72
2023-02-06T10:44:30.536Z,97298.34
2023-02-06T10:49:50.823Z,97290.44
2023-02-06T10:54:58.412Z,97264.63
2023-02-06T11:00:02.521Z,97277.72
2023-02-06T11:05:14.799Z,97278.34
2023-02-06T11:10:23.579Z,97299.22
2023-02-06T11:15:39.536Z,97270.00
2023-02-06T11:20:44.834Z,97315.22
2023-02-06T11:26:05.258Z,97293.25
2023-02-06T11:31:10.256Z,97282.78
2023-02-06T11:36:30.818Z,97252.56
2023-02-06T11:41:34.046Z,97290.63
2023-02-06T11:46:39.618Z,97281.19
2023-02-06T11:52:26.287Z,97285.69
2023-02-06T11:57:35.514Z,97325.78
2023-02-06T12:02:38.794Z,97309.50
2023-02-06T12:07:46.738Z,97333.41
2023-02-06T12:12:55.598Z,97315.41
2023-02-06T12:18:04.799Z,97316.03
2023-02-06T12:23:32.597Z,97296.56
2023-02-06T12:28:43.166Z,97343.31
2023-02-06T12:34:00.862Z,97309.78
2023-02-06T12:39:12.224Z,97349.25
2023-02-06T12:45:02.760Z,97359.25
2023-02-06T12:50:11.100Z,97357.53
2023-02-06T12:55:44.910Z,97344.94
2023-02-06T13:01:02.191Z,97357.53
2023-02-06T13:06:26.358Z,97343.72
2023-02-06T13:11:29.116Z,97370.25
2023-02-06T13:16:52.259Z,97379.63
2023-02-06T13:22:15.938Z,97369.91
2023-02-06T13:27:39.797Z,97402.25
2023-02-06T13:32:48.931Z,97375.75
2023-02-06T13:38:10.375Z,97426.38
2023-02-06T13:43:26.838Z,97404.88
2023-02-06T13:48:38.338Z,97420.38
2023-02-06T13:53:40.908Z,97415.13
2023-02-06T13:58:51.794Z,97413.88
2023-02-06T14:03:54.829Z,97416.78
2023-02-06T14:09:41.624Z,97397.38
2023-02-06T14:14:58.585Z,97395.69
2023-02-06T14:20:41.407Z,97374.00
2023-02-06T14:25:49.857Z,97399.81
2023-02-06T14:31:03.519Z,97395.25
2023-02-06T14:36:08.958Z,97398.72
2023-02-06T14:41:11.522Z,97380.66
2023-02-06T14:46:17.160Z,97388.63
2023-02-06T14:51:22.692Z,97400.19
2023-02-06T14:56:28.758Z,97426.91
2023-02-06T15:01:32.668Z,97408.28
2023-02-06T15:06:38.789Z,97428.84
2023-02-06T15:11:40.941Z,97424.47
2023-02-06T15:16:51.073Z,97444.69
2023-02-06T15:22:16.279Z,97450.81
2023-02-06T15:27:26.902Z,97473.88
2023-02-06T15:32:33.245Z,97465.41
2023-02-06T15:37:36.843Z,97469.84
2023-02-06T15:42:39.394Z,97458.16
2023-02-06T15:47:44.646Z,97476.56
2023-02-06T15:52:47.987Z,97477.38
2023-02-06T15:57:50.918Z,97455.50
2023-02-06T16:02:58.201Z,97502.16
2023-02-06T16:08:03.055Z,97509.53
2023-02-06T16:13:14.775Z,97506.84
2023-02-06T16:18:32.879Z,97540.56
2023-02-06T16:23:46.366Z,97525.06
2023-02-06T16:29:10.586Z,97560.34
2023-02-06T16:34:39.762Z,97528.50
2023-02-06T16:39:43.781Z,97556.00
2023-02-06T16:44:49.879Z,97562.63
2023-02-06T16:49:54.817Z,97588.88
2023-02-06T16:55:02.790Z,97584.59
2023-02-06T17:00:16.306Z,97590.69
2023-02-06T17:05:20.096Z,97585.53
2023-02-06T17:10:25.797Z,97595.97
2023-02-06T17:15:29.383Z,97586.25
2023-02-06T17:20:35.950Z,97606.25
2023-02-06T17:25:39.997Z,97603.13
2023-02-06T17:30:47.222Z,97595.28
2023-02-06T17:35:49.643Z,97610.94
2023-02-06T17:40:51.867Z,97616.75
2023-02-06T17:45:55.382Z,97603.06
2023-02-06T17:50:57.557Z,97609.06
2023-02-06T17:56:14.706Z,97605.63
2023-02-06T18:01:22.504Z,97621.91
2023-02-06T18:06:25.178Z,97618.00
2023-02-06T18:11:28.375Z,97612.19
2023-02-06T18:16:31.884Z,97613.78
2023-02-06T18:21:35.491Z,97600.78
2023-02-06T18:26:37.760Z,97618.91
2023-02-06T18:31:40.082Z,97603.91
2023-02-06T18:36:42.280Z,97614.94
2023-02-06T18:42:02.770Z,97617.50
2023-02-06T18:47:06.219Z,97592.78
2023-02-06T18:52:08.985Z,97612.69
2023-02-06T18:57:11.427Z,97596.16
2023-02-06T19:02:13.636Z,97614.94
2023-02-06T19:07:16.929Z,97603.91
2023-02-06T19:12:27.843Z,97616.75
2023-02-06T19:17:31.715Z,97638.22
